createdAt,value
2019-05-07T00:01:23.392Z,5.32
2019-05-07T00:03:53.637Z,5.42
2019-05-07T00:06:23.845Z,5.44
2019-05-07T00:08:53.985Z,5.57
2019-05-07T00:11:24.118Z,5.57
2019-05-07T00:13:54.238Z,5.57
2019-05-07T00:16:24.377Z,5.63
2019-05-07T00:18:54.518Z,5.67
2019-05-07T00:21:24.642Z,5.67
2019-05-07T00:23:54.771Z,5.74
2019-05-07T00:26:24.934Z,5.76
2019-05-07T00:28:55.142Z,5.77
2019-05-07T00:31:26.327Z,5.76
2019-05-07T00:33:56.456Z,5.68
2019-05-07T00:36:32.886Z,5.65
2019-05-07T00:39:16.840Z,5.61
2019-05-07T00:42:09.137Z,5.48
2019-05-07T00:44:56.951Z,5.49
2019-05-07T00:47:27.186Z,5.53
2019-05-07T00:49:59.609Z,5.48
2019-05-07T00:52:29.729Z,5.41
2019-05-07T00:54:59.863Z,5.37
2019-05-07T00:57:32.249Z,5.27
2019-05-07T01:00:02.942Z,5.32
2019-05-07T01:02:33.145Z,5.25
2019-05-07T01:05:03.305Z,5.07
2019-05-07T01:07:33.414Z,5.04
2019-05-07T01:10:04.435Z,5.05
2019-05-07T01:12:34.546Z,5.00
2019-05-07T01:15:06.412Z,4.97
2019-05-07T01:17:36.539Z,4.90
2019-05-07T01:20:06.696Z,4.90
2019-05-07T01:22:36.822Z,4.85
2019-05-07T01:25:07.045Z,4.92
2019-05-07T01:27:37.266Z,4.86
2019-05-07T01:30:07.545Z,4.85
2019-05-07T01:32:53.310Z,4.75
2019-05-07T01:35:45.386Z,4.69
2019-05-07T01:38:17.331Z,4.57
2019-05-07T01:40:47.465Z,4.58
2019-05-07T01:43:17.585Z,4.41
2019-05-07T01:45:49.815Z,4.53
2019-05-07T01:48:19.523Z,4.52
2019-05-07T01:50:49.715Z,4.49
2019-05-07T01:53:19.838Z,4.43
2019-05-07T01:55:52.233Z,4.45
2019-05-07T01:58:22.206Z,4.40
2019-05-07T02:00:53.212Z,4.37
2019-05-07T02:03:45.168Z,4.26
2019-05-07T02:06:26.506Z,4.27
2019-05-07T02:09:12.970Z,4.23
2019-05-07T02:11:45.077Z,4.08
2019-05-07T02:14:15.178Z,4.08
2019-05-07T02:16:45.305Z,4.09
2019-05-07T02:19:15.418Z,4.13
2019-05-07T02:21:46.643Z,4.07
2019-05-07T02:24:16.847Z,4.07
2019-05-07T02:26:47.019Z,4.06
2019-05-07T02:29:17.133Z,4.04
2019-05-07T02:31:47.243Z,4.00
2019-05-07T02:34:17.355Z,3.90
2019-05-07T02:36:47.480Z,3.93
2019-05-07T02:39:26.346Z,3.93
2019-05-07T02:41:56.522Z,3.89
2019-05-07T02:44:26.639Z,3.88
2019-05-07T02:47:15.778Z,3.83
2019-05-07T02:49:53.595Z,3.85
2019-05-07T02:52:43.707Z,3.83
2019-05-07T02:55:23.283Z,3.83
2019-05-07T02:57:54.298Z,3.80
2019-05-07T03:00:24.607Z,3.82
2019-05-07T03:02:54.756Z,3.71
2019-05-07T03:05:24.883Z,3.77
2019-05-07T03:07:55.021Z,3.71
2019-05-07T03:10:25.129Z,3.77
2019-05-07T03:12:55.375Z,3.76
2019-05-07T03:15:25.474Z,3.77
2019-05-07T03:17:55.626Z,3.70
2019-05-07T03:20:33.441Z,3.74
2019-05-07T03:23:04.443Z,3.64
2019-05-07T03:25:57.242Z,3.78
2019-05-07T03:28:27.389Z,4.01
2019-05-07T03:31:16.035Z,4.15
2019-05-07T03:34:07.911Z,4.45
2019-05-07T03:36:46.613Z,4.41
2019-05-07T03:39:14.447Z,4.62
2019-05-07T03:41:44.623Z,5.00
2019-05-07T03:44:24.539Z,5.16
2019-05-07T03:47:02.331Z,5.16
2019-05-07T03:49:29.738Z,5.18
2019-05-07T03:52:03.883Z,5.22
2019-05-07T03:54:33.934Z,5.29
2019-05-07T03:57:11.445Z,5.21
2019-05-07T03:59:39.670Z,5.22
2019-05-07T04:02:09.882Z,5.37
2019-05-07T04:04:43.303Z,5.51
2019-05-07T04:07:14.141Z,5.59
2019-05-07T04:09:44.310Z,5.83
2019-05-07T04:12:14.475Z,5.85
2019-05-07T04:14:44.657Z,5.93
2019-05-07T04:17:22.414Z,6.00
2019-05-07T04:19:46.732Z,6.04
2019-05-07T04:22:19.524Z,6.00
2019-05-07T04:25:07.327Z,6.13
2019-05-07T04:27:47.298Z,6.09
2019-05-07T04:30:17.510Z,6.13
2019-05-07T04:32:52.976Z,6.19
2019-05-07T04:35:53.529Z,6.25
2019-05-07T04:38:23.814Z,6.27
2019-05-07T04:40:54.577Z,6.24
2019-05-07T04:43:24.692Z,6.39
2019-05-07T04:45:54.930Z,6.26
2019-05-07T04:48:25.096Z,6.12
2019-05-07T04:50:57.563Z,6.22
2019-05-07T04:53:27.681Z,6.14
2019-05-07T04:55:58.219Z,6.09
2019-05-07T04:58:28.336Z,6.08
2019-05-07T05:00:58.988Z,6.23
2019-05-07T05:03:33.975Z,6.31
2019-05-07T05:06:02.903Z,6.42
2019-05-07T05:08:33.067Z,6.46
2019-05-07T05:11:03.674Z,6.52
2019-05-07T05:13:33.927Z,6.68
2019-05-07T05:16:25.162Z,6.71
2019-05-07T05:18:57.062Z,6.80
2019-05-07T05:21:47.375Z,7.13
2019-05-07T05:24:32.961Z,7.24
2019-05-07T05:27:04.268Z,7.35
2019-05-07T05:29:36.832Z,7.26
2019-05-07T05:32:06.993Z,7.41
2019-05-07T05:34:37.108Z,7.41
2019-05-07T05:37:07.376Z,7.18
2019-05-07T05:39:37.509Z,7.25
2019-05-07T05:42:26.604Z,7.22
2019-05-07T05:44:56.897Z,7.30
2019-05-07T05:47:27.119Z,7.21
2019-05-07T05:49:57.256Z,7.43
2019-05-07T05:52:39.830Z,7.44
2019-05-07T05:55:15.951Z,7.42
2019-05-07T05:58:09.479Z,7.66
2019-05-07T06:00:53.028Z,7.50
2019-05-07T06:03:42.919Z,7.66
2019-05-07T06:06:32.586Z,7.87
2019-05-07T06:09:19.342Z,8.32
2019-05-07T06:12:08.508Z,8.77
2019-05-07T06:14:45.378Z,8.88
2019-05-07T06:17:51.806Z,9.21
2019-05-07T06:20:43.556Z,9.27
2019-05-07T06:23:28.683Z,9.60
2019-05-07T06:25:59.544Z,9.41
2019-05-07T06:28:33.010Z,9.56
2019-05-07T06:31:03.868Z,9.19
2019-05-07T06:33:33.995Z,9.38
2019-05-07T06:36:04.164Z,9.22
2019-05-07T06:38:40.030Z,9.00
2019-05-07T06:41:28.079Z,8.92
2019-05-07T06:44:02.132Z,9.17
2019-05-07T06:46:32.518Z,9.06
2019-05-07T06:49:02.635Z,9.03
2019-05-07T06:51:33.015Z,8.98
2019-05-07T06:54:03.092Z,8.77
2019-05-07T06:56:33.235Z,9.03
2019-05-07T06:59:18.186Z,9.09
2019-05-07T07:02:07.295Z,9.09
2019-05-07T07:04:42.427Z,9.13
2019-05-07T07:07:27.393Z,9.22
2019-05-07T07:10:22.537Z,9.31
2019-05-07T07:12:53.102Z,9.28
2019-05-07T07:15:23.324Z,9.07
2019-05-07T07:17:53.438Z,8.90
2019-05-07T07:20:23.768Z,8.81
2019-05-07T07:22:53.924Z,8.67
2019-05-07T07:25:24.034Z,8.76
2019-05-07T07:27:54.171Z,8.86
2019-05-07T07:30:42.064Z,8.99
2019-05-07T07:33:12.913Z,9.05
2019-05-07T07:35:43.027Z,8.97
2019-05-07T07:38:32.892Z,8.91
2019-05-07T07:41:18.675Z,8.87
2019-05-07T07:43:48.871Z,8.88
2019-05-07T07:46:19.003Z,8.94
2019-05-07T07:49:03.265Z,8.77
2019-05-07T07:51:36.710Z,8.71
2019-05-07T07:53:52.773Z,8.76
2019-05-07T07:56:28.159Z,8.66
2019-05-07T07:59:23.335Z,8.75
2019-05-07T08:01:58.856Z,8.74
2019-05-07T08:04:28.992Z,8.97
2019-05-07T08:07:05.403Z,9.24
2019-05-07T08:09:36.232Z,9.34
2019-05-07T08:12:08.077Z,9.20
2019-05-07T08:14:38.358Z,9.27
2019-05-07T08:17:09.064Z,9.19
2019-05-07T08:19:39.201Z,9.28
2019-05-07T08:22:09.332Z,9.19
2019-05-07T08:24:39.470Z,9.30
2019-05-07T08:27:09.618Z,9.16
2019-05-07T08:29:39.750Z,9.12
2019-05-07T08:32:22.567Z,9.25
2019-05-07T08:34:57.676Z,9.29
2019-05-07T08:37:27.802Z,9.19
2019-05-07T08:39:57.927Z,9.36
2019-05-07T08:42:28.042Z,9.64
2019-05-07T08:45:21.630Z,9.87
2019-05-07T08:47:52.646Z,10.00
2019-05-07T08:50:22.883Z,9.89
2019-05-07T08:52:52.998Z,9.81
2019-05-07T08:55:23.144Z,9.76
2019-05-07T08:57:53.268Z,9.63
2019-05-07T09:00:24.194Z,9.69
2019-05-07T09:02:54.318Z,9.68
2019-05-07T09:05:24.476Z,9.63
2019-05-07T09:07:54.597Z,9.74
2019-05-07T09:10:24.755Z,9.64
2019-05-07T09:12:54.882Z,9.56
2019-05-07T09:15:25.064Z,9.76
2019-05-07T09:17:55.359Z,9.90
2019-05-07T09:20:25.483Z,9.82
2019-05-07T09:22:55.620Z,9.81
2019-05-07T09:25:26.851Z,9.67
2019-05-07T09:27:57.076Z,9.45
2019-05-07T09:30:52.607Z,9.39
2019-05-07T09:33:42.770Z,9.42
2019-05-07T09:36:22.692Z,9.76
2019-05-07T09:38:56.855Z,9.99
2019-05-07T09:41:28.165Z,10.21
2019-05-07T09:43:58.987Z,10.58
2019-05-07T09:46:29.213Z,11.09
2019-05-07T09:48:59.323Z,11.35
2019-05-07T09:51:29.459Z,11.60
2019-05-07T09:53:59.600Z,11.71
2019-05-07T09:56:31.884Z,11.71
2019-05-07T09:59:02.681Z,11.87
2019-05-07T10:01:32.852Z,11.81
2019-05-07T10:04:02.981Z,11.71
2019-05-07T10:06:33.272Z,11.62
2019-05-07T10:09:04.200Z,11.47
2019-05-07T10:11:43.414Z,11.00
2019-05-07T10:14:13.611Z,11.01
2019-05-07T10:16:56.355Z,11.12
2019-05-07T10:19:26.491Z,11.12
2019-05-07T10:21:56.626Z,11.26
2019-05-07T10:24:26.745Z,11.16
2019-05-07T10:26:57.092Z,11.22
2019-05-07T10:29:27.263Z,11.22
2019-05-07T10:31:57.419Z,11.21
2019-05-07T10:34:27.563Z,11.20
2019-05-07T10:36:57.783Z,11.24
2019-05-07T10:39:27.912Z,11.28
2019-05-07T10:41:58.041Z,11.35
2019-05-07T10:44:32.564Z,11.31
2019-05-07T10:47:22.276Z,11.42
2019-05-07T10:50:11.937Z,11.76
2019-05-07T10:52:42.588Z,11.83
2019-05-07T10:55:13.955Z,11.91
2019-05-07T10:57:45.227Z,11.98
2019-05-07T11:00:18.739Z,12.18
2019-05-07T11:02:48.923Z,11.88
2019-05-07T11:05:19.149Z,11.88
2019-05-07T11:07:49.277Z,11.66
2019-05-07T11:10:21.803Z,12.01
2019-05-07T11:12:51.781Z,12.17
2019-05-07T11:15:22.262Z,12.24
2019-05-07T11:18:02.680Z,12.39
2019-05-07T11:20:46.090Z,12.61
2019-05-07T11:23:04.852Z,12.98
2019-05-07T11:25:35.159Z,13.24
2019-05-07T11:28:05.418Z,13.38
2019-05-07T11:30:35.539Z,13.49
2019-05-07T11:33:05.688Z,13.86
2019-05-07T11:35:35.822Z,13.99
2019-05-07T11:38:17.648Z,13.91
2019-05-07T11:40:38.683Z,14.17
2019-05-07T11:43:24.815Z,14.18
2019-05-07T11:46:05.868Z,14.17
2019-05-07T11:48:39.481Z,14.04
2019-05-07T11:51:19.027Z,13.90
2019-05-07T11:54:12.739Z,13.89
2019-05-07T11:56:43.109Z,13.47
2019-05-07T11:59:13.710Z,13.30
2019-05-07T12:01:48.115Z,13.16
2019-05-07T12:04:18.389Z,13.57
2019-05-07T12:06:48.513Z,13.94
2019-05-07T12:09:18.655Z,14.15
2019-05-07T12:11:48.769Z,14.17
2019-05-07T12:14:28.870Z,13.88
2019-05-07T12:16:50.812Z,13.96
2019-05-07T12:19:22.664Z,14.09
2019-05-07T12:21:52.895Z,13.77
2019-05-07T12:24:23.056Z,13.89
2019-05-07T12:26:53.252Z,13.61
2019-05-07T12:29:23.447Z,13.29
2019-05-07T12:32:12.592Z,13.04
2019-05-07T12:34:52.738Z,13.13
2019-05-07T12:37:22.975Z,13.59
2019-05-07T12:39:53.140Z,13.57
2019-05-07T12:42:23.275Z,13.61
2019-05-07T12:44:53.454Z,13.51
2019-05-07T12:47:23.615Z,13.68
2019-05-07T12:49:53.828Z,13.70
2019-05-07T12:52:32.843Z,13.81
2019-05-07T12:55:15.159Z,13.64
2019-05-07T12:57:45.276Z,13.74
2019-05-07T13:00:33.742Z,13.66
2019-05-07T13:03:21.908Z,13.56
2019-05-07T13:05:52.207Z,13.55
2019-05-07T13:08:23.395Z,13.58
2019-05-07T13:10:53.559Z,13.66
2019-05-07T13:13:23.669Z,13.84
2019-05-07T13:15:53.808Z,13.79
2019-05-07T13:18:23.933Z,13.66
2019-05-07T13:20:54.071Z,13.55
2019-05-07T13:23:24.199Z,13.73
2019-05-07T13:25:54.443Z,13.80
2019-05-07T13:28:24.563Z,13.69
2019-05-07T13:30:54.728Z,13.59
2019-05-07T13:33:27.134Z,13.56
2019-05-07T13:35:57.406Z,13.36
2019-05-07T13:38:42.564Z,13.49
2019-05-07T13:41:38.004Z,13.72
2019-05-07T13:44:22.742Z,13.62
2019-05-07T13:47:12.557Z,13.73
2019-05-07T13:49:42.876Z,13.81
2019-05-07T13:52:14.269Z,13.70
2019-05-07T13:54:44.501Z,13.30
2019-05-07T13:57:14.868Z,13.40
2019-05-07T13:59:46.856Z,13.29
2019-05-07T14:02:17.907Z,13.46
2019-05-07T14:04:49.486Z,12.42
2019-05-07T14:07:21.628Z,13.59
2019-05-07T14:09:52.721Z,13.55
2019-05-07T14:12:23.167Z,13.39
2019-05-07T14:14:53.399Z,13.51
2019-05-07T14:17:24.651Z,13.56
2019-05-07T14:19:54.845Z,13.31
2019-05-07T14:22:25.073Z,13.25
2019-05-07T14:24:55.190Z,13.09
2019-05-07T14:27:25.359Z,13.15
2019-05-07T14:29:55.486Z,13.06
2019-05-07T14:32:43.742Z,12.82
2019-05-07T14:35:36.027Z,13.00
2019-05-07T14:38:18.533Z,13.17
2019-05-07T14:40:48.679Z,13.13
2019-05-07T14:43:25.802Z,13.12
2019-05-07T14:46:04.816Z,13.12
2019-05-07T14:48:36.301Z,12.85
2019-05-07T14:51:07.109Z,12.91
2019-05-07T14:53:37.273Z,12.94
2019-05-07T14:56:07.404Z,12.88
2019-05-07T14:58:37.599Z,12.79
2019-05-07T15:01:07.852Z,12.72
2019-05-07T15:03:38.036Z,12.69
2019-05-07T15:06:08.676Z,12.70
2019-05-07T15:08:38.877Z,12.73
2019-05-07T15:11:09.152Z,12.85
2019-05-07T15:13:39.476Z,12.70
2019-05-07T15:16:11.919Z,12.66
2019-05-07T15:19:00.383Z,12.58
2019-05-07T15:21:32.393Z,12.56
2019-05-07T15:24:04.202Z,12.69
2019-05-07T15:26:35.866Z,12.60
2019-05-07T15:29:12.329Z,12.65
2019-05-07T15:31:58.191Z,12.50
2019-05-07T15:34:28.436Z,12.48
2019-05-07T15:36:58.579Z,12.49
2019-05-07T15:39:28.731Z,12.54
2019-05-07T15:41:58.893Z,12.47
2019-05-07T15:44:29.080Z,12.22
2019-05-07T15:47:02.593Z,12.25
2019-05-07T15:49:32.816Z,12.16
2019-05-07T15:52:05.560Z,12.20
2019-05-07T15:54:35.926Z,12.18
2019-05-07T15:57:08.360Z,11.88
2019-05-07T15:59:38.535Z,11.99
2019-05-07T16:02:17.450Z,11.97
2019-05-07T16:04:48.422Z,11.95
2019-05-07T16:07:18.621Z,11.94
2019-05-07T16:09:48.803Z,11.99
2019-05-07T16:12:22.728Z,11.71
2019-05-07T16:14:52.682Z,11.70
2019-05-07T16:17:32.914Z,11.58
2019-05-07T16:20:03.343Z,11.46
2019-05-07T16:22:37.696Z,11.55
2019-05-07T16:25:08.212Z,11.59
2019-05-07T16:27:44.200Z,11.45
2019-05-07T16:30:14.565Z,11.50
2019-05-07T16:32:44.720Z,11.50
2019-05-07T16:35:16.401Z,11.53
2019-05-07T16:37:46.662Z,11.59
2019-05-07T16:40:17.095Z,11.51
2019-05-07T16:42:47.268Z,11.58
2019-05-07T16:45:17.499Z,11.55
2019-05-07T16:47:47.682Z,11.68
2019-05-07T16:50:18.246Z,11.55
2019-05-07T16:52:52.217Z,11.48
2019-05-07T16:55:23.561Z,11.38
2019-05-07T16:58:20.638Z,11.34
2019-05-07T17:00:53.518Z,11.13
2019-05-07T17:03:28.442Z,11.00
2019-05-07T17:05:58.729Z,11.02
2019-05-07T17:08:49.226Z,11.12
2019-05-07T17:11:19.548Z,11.24
2019-05-07T17:13:51.775Z,11.23
2019-05-07T17:16:22.794Z,11.34
2019-05-07T17:18:53.123Z,11.24
2019-05-07T17:21:23.416Z,11.22
2019-05-07T17:23:54.680Z,10.94
2019-05-07T17:26:25.170Z,10.70
2019-05-07T17:28:55.368Z,10.82
2019-05-07T17:31:25.596Z,10.67
2019-05-07T17:33:55.772Z,10.64
2019-05-07T17:36:25.981Z,10.40
2019-05-07T17:38:56.107Z,10.33
2019-05-07T17:41:27.295Z,10.36
2019-05-07T17:43:57.651Z,10.20
2019-05-07T17:46:27.832Z,10.10
2019-05-07T17:48:58.048Z,10.13
2019-05-07T17:51:47.162Z,10.07
2019-05-07T17:54:17.341Z,10.08
2019-05-07T17:56:47.547Z,10.06
2019-05-07T17:59:17.723Z,10.13
2019-05-07T18:02:25.520Z,9.94
2019-05-07T18:04:55.658Z,9.76
2019-05-07T18:07:25.859Z,9.67
2019-05-07T18:09:56.258Z,9.68
2019-05-07T18:12:26.380Z,9.63
2019-05-07T18:14:56.858Z,9.70
2019-05-07T18:17:47.463Z,9.57
2019-05-07T18:20:17.579Z,9.51
2019-05-07T18:22:47.729Z,9.53
2019-05-07T18:25:17.903Z,9.56
2019-05-07T18:27:48.138Z,9.53
2019-05-07T18:30:18.347Z,9.55
2019-05-07T18:32:53.771Z,9.57
2019-05-07T18:35:23.910Z,9.57
2019-05-07T18:37:54.087Z,9.53
2019-05-07T18:40:24.430Z,9.52
2019-05-07T18:42:54.555Z,9.53
2019-05-07T18:45:24.724Z,9.57
2019-05-07T18:47:54.885Z,9.51
2019-05-07T18:50:25.255Z,9.49
2019-05-07T18:52:55.387Z,9.37
2019-05-07T18:55:25.534Z,9.39
2019-05-07T18:57:55.728Z,9.34
2019-05-07T19:00:31.764Z,9.30
2019-05-07T19:03:03.391Z,9.22
2019-05-07T19:05:37.272Z,9.07
2019-05-07T19:08:08.773Z,9.03
2019-05-07T19:10:42.742Z,8.88
2019-05-07T19:13:12.357Z,8.85
2019-05-07T19:15:42.485Z,8.75
2019-05-07T19:18:13.000Z,8.64
2019-05-07T19:20:43.258Z,8.57
2019-05-07T19:23:13.463Z,8.46
2019-05-07T19:25:43.647Z,8.33
2019-05-07T19:28:15.035Z,8.22
2019-05-07T19:30:47.826Z,8.09
2019-05-07T19:33:19.153Z,8.04
2019-05-07T19:35:49.377Z,7.99
2019-05-07T19:38:19.592Z,7.88
2019-05-07T19:40:49.797Z,7.83
2019-05-07T19:43:19.995Z,7.78
2019-05-07T19:45:52.391Z,7.71
2019-05-07T19:48:24.471Z,7.66
2019-05-07T19:50:55.016Z,7.59
2019-05-07T19:53:25.414Z,7.51
2019-05-07T19:56:08.175Z,7.43
2019-05-07T19:58:41.907Z,7.34
2019-05-07T20:01:13.632Z,7.28
2019-05-07T20:03:43.888Z,7.20
2019-05-07T20:06:14.030Z,7.12
2019-05-07T20:08:44.604Z,7.04
2019-05-07T20:11:22.408Z,6.99
2019-05-07T20:13:53.099Z,6.90
2019-05-07T20:16:23.377Z,6.83
2019-05-07T20:18:55.857Z,6.78
2019-05-07T20:21:26.085Z,6.71
2019-05-07T20:23:56.428Z,6.65
2019-05-07T20:26:26.737Z,6.61
2019-05-07T20:28:59.031Z,6.54
2019-05-07T20:31:29.231Z,6.47
2019-05-07T20:33:59.459Z,6.42
2019-05-07T20:36:29.629Z,6.38
2019-05-07T20:39:02.018Z,6.33
2019-05-07T20:41:33.267Z,6.29
2019-05-07T20:44:05.581Z,6.21
2019-05-07T20:46:35.856Z,6.15
2019-05-07T20:49:06.074Z,6.11
2019-05-07T20:51:36.182Z,6.03
2019-05-07T20:54:32.479Z,5.97
2019-05-07T20:57:31.956Z,5.93
2019-05-07T21:00:02.759Z,5.82
2019-05-07T21:02:44.494Z,5.63
2019-05-07T21:05:06.877Z,5.54
2019-05-07T21:07:37.000Z,5.44
2019-05-07T21:10:07.305Z,5.35
2019-05-07T21:12:37.426Z,5.29
2019-05-07T21:15:07.905Z,5.28
2019-05-07T21:17:38.032Z,5.37
2019-05-07T21:20:08.396Z,5.47
2019-05-07T21:22:38.525Z,5.50
2019-05-07T21:25:08.792Z,5.41
2019-05-07T21:27:38.920Z,5.29
2019-05-07T21:30:09.067Z,5.17
2019-05-07T21:32:39.197Z,4.95
2019-05-07T21:35:09.463Z,4.85
2019-05-07T21:37:41.879Z,4.75
2019-05-07T21:40:13.362Z,4.67
2019-05-07T21:42:44.291Z,4.56
2019-05-07T21:45:14.426Z,4.45
2019-05-07T21:47:44.544Z,4.36
2019-05-07T21:50:14.904Z,4.23
2019-05-07T21:52:49.234Z,4.26
2019-05-07T21:55:32.202Z,4.21
2019-05-07T21:58:22.522Z,4.11
2019-05-07T22:01:17.779Z,3.99
2019-05-07T22:03:52.443Z,3.90
2019-05-07T22:06:22.893Z,3.79
2019-05-07T22:08:54.848Z,3.73
2019-05-07T22:11:24.914Z,3.65
2019-05-07T22:13:55.153Z,3.57
2019-05-07T22:16:25.290Z,3.48
2019-05-07T22:18:55.407Z,3.47
2019-05-07T22:21:25.567Z,3.42
2019-05-07T22:23:55.678Z,3.38
2019-05-07T22:26:26.574Z,3.35
2019-05-07T22:28:56.954Z,3.34
2019-05-07T22:31:44.897Z,3.31
2019-05-07T22:34:42.818Z,3.27
2019-05-07T22:37:13.751Z,3.25
2019-05-07T22:39:48.210Z,3.21
2019-05-07T22:42:22.901Z,3.13
2019-05-07T22:44:54.181Z,3.11
2019-05-07T22:47:24.329Z,3.09
2019-05-07T22:49:54.430Z,3.05
2019-05-07T22:52:24.704Z,3.07
2019-05-07T22:54:54.849Z,3.06
2019-05-07T22:57:32.699Z,3.01
2019-05-07T23:00:04.582Z,2.97
2019-05-07T23:02:36.675Z,2.93
2019-05-07T23:05:07.123Z,2.90
2019-05-07T23:07:37.274Z,2.80
2019-05-07T23:10:07.499Z,2.77
2019-05-07T23:12:37.651Z,2.75
2019-05-07T23:15:08.112Z,2.65
2019-05-07T23:17:38.235Z,2.66
2019-05-07T23:20:08.354Z,2.63
2019-05-07T23:22:38.519Z,2.57
2019-05-07T23:25:08.872Z,2.52
2019-05-07T23:27:39.015Z,2.48
2019-05-07T23:30:09.354Z,2.47
2019-05-07T23:32:39.511Z,2.25
2019-05-07T23:35:09.722Z,2.39
2019-05-07T23:37:39.882Z,2.35
2019-05-07T23:40:26.009Z,2.35
2019-05-07T23:42:58.070Z,2.33
2019-05-07T23:45:28.186Z,2.33
2019-05-07T23:47:58.443Z,2.31
2019-05-07T23:50:28.583Z,2.29
2019-05-07T23:52:58.750Z,2.31
2019-05-07T23:55:28.904Z,2.30
2019-05-07T23:57:59.041Z,2.32
